الصفحة الرئيسية
METAR-TAF:

METAR-TAF

مطار :

تولتشيا, رومانيا

دائرة عرض: 45-11N, خط طول: 028-49E, ارتفاع: 4 متر

مراقبة الطقس الحالي

تاريخ ووقت الإصدار 39 دقيقة قبل الساعة 01:00UTC
ريح 11 عقدة من الشمال الغربي
درجة الحرارة 26°درجة مئوية
الرطوبة 61%
ضغط 1014 hPa
الرؤية 10 كم أو أكثر

METAR: LRTC 180100Z AUTO 32011KT 9999 NCD 26/18 Q1014

زمن: 04:39 (01:39 UTC)

توقعات

تاريخ ووقت الإصدار 11ساعات و 39 دقيقة قبل الساعة 14:00UTC
التوقعات صالحة من17 الساعة 15 UTC إلى 18 الساعة 00 UTC
ريح 12 عقدة من الشرق/الشمال الشرقي
الرؤية 10 كم أو أكثر
غيوم متفرقة على ارتفاع 5000 قدم, مزنة ركامية.
أصبح
من 17 الساعة 16 UTC إلى 17 الساعة 18 UTC
ريح 4 عقدةمن اتجاهات متغيرة

TAF: LRTC 171400Z 1715/1800 06012KT 9999 SCT050CB BECMG 1716/1718 VRB04KT NSC

أرصاد الطقس والتوقعات من أكثر من 4000 مطار (تقارير الطقس للمطار METAR والتنبؤ بالطقس بالمطارTAF).

المحطات المتاحة هي النقط الصفراء والحمراء على الخريطة.

حرك المؤشر فوق النقطة لمعرفة اسم المحطة.

ثم انقر لمعرفة أرصاد وتوقعات الطقس.

لتغيير الخارطة: اضغط على الأزرار الخضراء مع رمز الصليب الأسود للتكبير. على الزر الأخضر مع شرطة للتصغير، أو على الأسهم الخضراء للخرائط المجاورة.


METAR-TAF: